Observations for PISA CIV IT-AFB, Italy (LIRP)

LIRP 242115Z 08019G30KT CAVOK 20/07 Q1022 NOSIG 
LIRP 242045Z 10015KT CAVOK 20/08 Q1021 TEMPO 09015G25KT 
LIRP 242015Z 10014KT CAVOK 20/09 Q1021 TEMPO 09015G25KT 
LIRP 241945Z 09011KT CAVOK 20/08 Q1020 NOSIG
LIRP 241915Z 10012KT CAVOK 21/09 Q1019 TEMPO 09015G25KT 
LIRP 241845Z 08012KT CAVOK 21/09 Q1019 TEMPO 07015G25KT 
LIRP 241815Z 10013KT 9999 FEW050 21/08 Q1017 NOSIG  
LIRP 241745Z 10014KT 9999 FEW050 22/08 Q1017 BECMG 07015G25KT   
LIRP 241715Z 10018KT 9999 FEW040 22/08 Q1017 BECMG 07015G25KT   
LIRP 241645Z 10015KT 9999 FEW040 23/10 Q1016 BECMG 07015G25KT   
LIRP 241615Z 10017KT 9999 FEW040 24/11 Q1016 BECMG 07015G25KT   
LIRP 241545Z 09015KT 9999 SCT040 25/12 Q1015 BECMG 04015G25KT   
LIRP 241515Z 09010KT 9999 SCT030 25/14 Q1015 RMK WS RWY 04R BECMG 04015G25KT
LIRP 241445Z 10012KT 9999 SCT030 26/15 Q1015 RMK WS RWY 04R BECMG 04015G25KT
LIRP 241445Z 10012KT 9999 SCT030 26/15 Q1015 RMK WS ALL RWY BECMG 04015G25KT
LIRP 241415Z 30012KT 9999 SCT050 28/20 Q1014 BECMG 04015G25KT   
LIRP 241345Z 32011KT 9999 SCT050 28/20 Q1014 BECMG 04015G25KT   
LIRP 241315Z 30011KT 9999 FEW050 29/20 Q1014 BECMG 04015G25KT   
LIRP 241245Z 12003KT 9999 SCT050 28/18 Q1015 BECMG 04015G25KT   
LIRP 241215Z 03003KT 9999 SCT040 28/19 Q1015 BECMG 04015G25KT   
LIRP 241145Z 34004KT 9999 SCT040 28/19 Q1015 TEMPO 04015G25KT   
LIRP 241115Z 03003KT 9999 FEW040 28/19 Q1015 TEMPO 04015G25KT   
LIRP 241045Z 15005KT 9999 FEW040 27/19 Q1014 TEMPO 04015G25KT   
LIRP 241015Z 12004KT 9999 SCT070 27/20 Q1014 NOSIG  
LIRP 240945Z 10004KT 9999 BKN070 26/20 Q1014 NOSIG  
LIRP 240915Z 10003KT 9999 BKN050 26/20 Q1014 NOSIG  
LIRP 240845Z 12005KT 9999 BKN040 26/20 Q1014 NOSIG  
LIRP 240815Z 12007KT 9999 FEW040 25/20 Q1014 NOSIG  
LIRP 240745Z 12005KT 9999 SCT040 24/21 Q1013 NOSIG  
LIRP 240715Z 08002KT 9999 SCT040 SCT060 23/20 Q1013 NOSIG   
LIRP 240645Z 04004KT 9999 SCT040 SCT050 22/20 Q1013 NOSIG   
LIRP 240615Z 12005KT 9999 SCT040 BKN060 22/20 Q1012 NOSIG   
LIRP 240545Z 09004KT 9999 FEW025 BKN050 21/20 Q1012 NOSIG   
LIRP 240515Z 09005KT 9999 FEW025 BKN050 21/21 Q1012 NOSIG   
LIRP 240445Z 06004KT 9999 SCT025 SCT050 21/21 Q1012 NOSIG   
LIRP 240415Z 08004KT 9999 SCT025 SCT050 21/21 Q1013 NOSIG   
LIRP 240345Z 12004KT 9999 SCT025 SCT050 21/21 Q1013 NOSIG   
LIRP 240315Z 11004KT 9999 SCT025 SCT050 21/21 Q1013 NOSIG   
LIRP 240245Z 09002KT 9999 SCT020 SCT040 21/21 Q1013 NOSIG   
LIRP 240215Z 08002KT 9999 SCT020 SCT040 21/21 Q1013 NOSIG   
LIRP 240145Z 08002KT 9999 SCT020 SCT040 22/21 Q1013 NOSIG   
LIRP 240115Z 10004KT 9999 SCT020 SCT040 22/21 Q1014 NOSIG   
LIRP 240045Z 10003KT 9999 SCT020 SCT040 22/21 Q1014 NOSIG   
LIRP 240015Z 10003KT 9999 SCT020 SCT040 22/21 Q1014 NOSIG   
LIRP 232345Z 18005KT 9999 SCT020 SCT040 22/21 Q1014 NOSIG   
LIRP 232315Z 18006KT 9999 -RA SCT020 SCT035 22/20 Q1014 NOSIG   
LIRP 232245Z 19008KT 9999 FEW020 SCT035 22/20 Q1016 NOSIG   
LIRP 232215Z 19007KT 9999 FEW020 SCT040 21/20 Q1016 NOSIG   
LIRP 232145Z 16003KT 9999 FEW020 SCT040 21/21 Q1016 NOSIG   
LIRP 232115Z 16004KT 9999 FEW020 SCT040 21/20 Q1016 NOSIG   
LIRP 232045Z 11003KT 9999 FEW030 SCT040 21/21 Q1016 NOSIG